sensor_id;sensor_type;location;lat;lon;timestamp;P1;durP1;ratioP1;P2;durP2;ratioP2
10260;SDS011;5175;42.606;23.388;2022-09-09T00:02:10;9.43;;;8.63;;
10260;SDS011;5175;42.606;23.388;2022-09-09T00:04:45;10.20;;;9.07;;
10260;SDS011;5175;42.606;23.388;2022-09-09T00:07:28;9.63;;;8.63;;
10260;SDS011;5175;42.606;23.388;2022-09-09T00:10:11;12.00;;;9.07;;
10260;SDS011;5175;42.606;23.388;2022-09-09T00:12:47;9.65;;;8.77;;
10260;SDS011;5175;42.606;23.388;2022-09-09T00:15:22;9.65;;;8.75;;
10260;SDS011;5175;42.606;23.388;2022-09-09T00:17:52;10.15;;;9.15;;
10260;SDS011;5175;42.606;23.388;2022-09-09T00:20:28;9.93;;;8.93;;
10260;SDS011;5175;42.606;23.388;2022-09-09T00:23:00;10.02;;;8.93;;
10260;SDS011;5175;42.606;23.388;2022-09-09T00:25:37;10.95;;;9.55;;
10260;SDS011;5175;42.606;23.388;2022-09-09T00:28:13;10.20;;;9.00;;
10260;SDS011;5175;42.606;23.388;2022-09-09T00:30:44;10.57;;;9.48;;
10260;SDS011;5175;42.606;23.388;2022-09-09T00:33:14;10.83;;;9.30;;
10260;SDS011;5175;42.606;23.388;2022-09-09T00:35:44;9.40;;;8.60;;
10260;SDS011;5175;42.606;23.388;2022-09-09T00:38:13;11.07;;;9.88;;
10260;SDS011;5175;42.606;23.388;2022-09-09T00:40:45;10.90;;;9.75;;
10260;SDS011;5175;42.606;23.388;2022-09-09T00:43:23;11.27;;;9.50;;
10260;SDS011;5175;42.606;23.388;2022-09-09T00:46:08;9.95;;;9.05;;
10260;SDS011;5175;42.606;23.388;2022-09-09T00:48:58;9.93;;;9.02;;
10260;SDS011;5175;42.606;23.388;2022-09-09T00:51:34;10.30;;;9.30;;
10260;SDS011;5175;42.606;23.388;2022-09-09T00:54:14;10.02;;;9.07;;
10260;SDS011;5175;42.606;23.388;2022-09-09T00:57:13;9.85;;;9.05;;
10260;SDS011;5175;42.606;23.388;2022-09-09T00:59:47;9.45;;;8.57;;
10260;SDS011;5175;42.606;23.388;2022-09-09T01:02:21;9.75;;;8.95;;
10260;SDS011;5175;42.606;23.388;2022-09-09T01:04:54;9.88;;;8.88;;
10260;SDS011;5175;42.606;23.388;2022-09-09T01:07:27;9.80;;;8.53;;
10260;SDS011;5175;42.606;23.388;2022-09-09T01:09:56;10.63;;;9.73;;
10260;SDS011;5175;42.606;23.388;2022-09-09T01:12:28;9.73;;;8.82;;
10260;SDS011;5175;42.606;23.388;2022-09-09T01:15:10;11.13;;;9.30;;
10260;SDS011;5175;42.606;23.388;2022-09-09T01:17:42;9.90;;;9.00;;
10260;SDS011;5175;42.606;23.388;2022-09-09T01:20:17;9.27;;;8.48;;
10260;SDS011;5175;42.606;23.388;2022-09-09T01:22:50;10.10;;;8.95;;
10260;SDS011;5175;42.606;23.388;2022-09-09T01:28:51;8.47;;;7.77;;
10260;SDS011;5175;42.606;23.388;2022-09-09T01:31:20;9.32;;;8.50;;
10260;SDS011;5175;42.606;23.388;2022-09-09T01:33:52;10.00;;;9.00;;
10260;SDS011;5175;42.606;23.388;2022-09-09T01:36:21;8.90;;;8.00;;
10260;SDS011;5175;42.606;23.388;2022-09-09T01:38:54;10.77;;;8.37;;
10260;SDS011;5175;42.606;23.388;2022-09-09T01:41:21;9.77;;;8.75;;
10260;SDS011;5175;42.606;23.388;2022-09-09T01:43:49;10.27;;;8.48;;
10260;SDS011;5175;42.606;23.388;2022-09-09T01:46:17;8.80;;;8.00;;
10260;SDS011;5175;42.606;23.388;2022-09-09T01:48:47;8.90;;;8.00;;
10260;SDS011;5175;42.606;23.388;2022-09-09T01:51:16;11.52;;;8.55;;
10260;SDS011;5175;42.606;23.388;2022-09-09T01:53:42;10.52;;;8.25;;
10260;SDS011;5175;42.606;23.388;2022-09-09T01:56:13;9.73;;;8.35;;
10260;SDS011;5175;42.606;23.388;2022-09-09T01:58:54;9.10;;;8.20;;
10260;SDS011;5175;42.606;23.388;2022-09-09T02:01:31;9.25;;;8.45;;
10260;SDS011;5175;42.606;23.388;2022-09-09T02:04:11;9.77;;;8.48;;
10260;SDS011;5175;42.606;23.388;2022-09-09T02:06:50;9.85;;;7.95;;
10260;SDS011;5175;42.606;23.388;2022-09-09T02:09:22;9.25;;;8.35;;
10260;SDS011;5175;42.606;23.388;2022-09-09T02:11:51;9.80;;;8.90;;
10260;SDS011;5175;42.606;23.388;2022-09-09T02:14:27;9.80;;;8.95;;
10260;SDS011;5175;42.606;23.388;2022-09-09T02:17:01;9.50;;;8.70;;
10260;SDS011;5175;42.606;23.388;2022-09-09T02:19:34;10.03;;;9.13;;
10260;SDS011;5175;42.606;23.388;2022-09-09T02:22:05;9.63;;;8.82;;
10260;SDS011;5175;42.606;23.388;2022-09-09T02:24:33;10.10;;;9.13;;
10260;SDS011;5175;42.606;23.388;2022-09-09T02:27:03;10.43;;;9.40;;
10260;SDS011;5175;42.606;23.388;2022-09-09T02:29:36;10.93;;;9.50;;
10260;SDS011;5175;42.606;23.388;2022-09-09T02:32:06;9.95;;;8.85;;
10260;SDS011;5175;42.606;23.388;2022-09-09T02:34:38;9.85;;;8.80;;
10260;SDS011;5175;42.606;23.388;2022-09-09T02:37:08;10.57;;;9.15;;
10260;SDS011;5175;42.606;23.388;2022-09-09T02:39:36;10.07;;;9.10;;
10260;SDS011;5175;42.606;23.388;2022-09-09T02:42:03;9.77;;;8.95;;
10260;SDS011;5175;42.606;23.388;2022-09-09T02:44:32;10.43;;;9.33;;
10260;SDS011;5175;42.606;23.388;2022-09-09T02:47:05;10.80;;;9.38;;
10260;SDS011;5175;42.606;23.388;2022-09-09T02:49:43;10.57;;;9.55;;
10260;SDS011;5175;42.606;23.388;2022-09-09T02:52:23;10.73;;;9.80;;
10260;SDS011;5175;42.606;23.388;2022-09-09T02:54:57;10.50;;;9.50;;
10260;SDS011;5175;42.606;23.388;2022-09-09T02:57:30;13.53;;;9.80;;
10260;SDS011;5175;42.606;23.388;2022-09-09T02:59:59;10.37;;;9.37;;
10260;SDS011;5175;42.606;23.388;2022-09-09T03:02:28;10.40;;;9.40;;
10260;SDS011;5175;42.606;23.388;2022-09-09T03:04:55;9.73;;;8.83;;
10260;SDS011;5175;42.606;23.388;2022-09-09T03:07:23;10.00;;;8.97;;
10260;SDS011;5175;42.606;23.388;2022-09-09T03:09:49;10.93;;;9.97;;
10260;SDS011;5175;42.606;23.388;2022-09-09T03:12:17;11.00;;;9.93;;
10260;SDS011;5175;42.606;23.388;2022-09-09T03:14:43;11.40;;;10.30;;
10260;SDS011;5175;42.606;23.388;2022-09-09T03:17:11;11.20;;;10.20;;
10260;SDS011;5175;42.606;23.388;2022-09-09T03:19:40;10.50;;;9.60;;
10260;SDS011;5175;42.606;23.388;2022-09-09T03:22:08;10.40;;;9.40;;
10260;SDS011;5175;42.606;23.388;2022-09-09T03:24:36;11.15;;;10.05;;
10260;SDS011;5175;42.606;23.388;2022-09-09T03:27:03;11.10;;;10.00;;
10260;SDS011;5175;42.606;23.388;2022-09-09T03:29:29;11.40;;;10.40;;
10260;SDS011;5175;42.606;23.388;2022-09-09T03:31:56;11.20;;;10.10;;
10260;SDS011;5175;42.606;23.388;2022-09-09T03:34:23;11.90;;;10.80;;
10260;SDS011;5175;42.606;23.388;2022-09-09T03:36:51;13.93;;;11.20;;
10260;SDS011;5175;42.606;23.388;2022-09-09T03:39:17;12.93;;;10.55;;
10260;SDS011;5175;42.606;23.388;2022-09-09T03:41:44;11.77;;;10.67;;
10260;SDS011;5175;42.606;23.388;2022-09-09T03:44:13;10.95;;;9.90;;
10260;SDS011;5175;42.606;23.388;2022-09-09T03:46:40;11.73;;;10.63;;
10260;SDS011;5175;42.606;23.388;2022-09-09T03:49:06;12.60;;;11.38;;
10260;SDS011;5175;42.606;23.388;2022-09-09T03:51:35;15.90;;;11.50;;
10260;SDS011;5175;42.606;23.388;2022-09-09T03:54:04;13.23;;;10.67;;
10260;SDS011;5175;42.606;23.388;2022-09-09T03:56:33;12.60;;;11.02;;
10260;SDS011;5175;42.606;23.388;2022-09-09T03:59:00;11.83;;;10.73;;
10260;SDS011;5175;42.606;23.388;2022-09-09T04:01:27;11.90;;;10.50;;
10260;SDS011;5175;42.606;23.388;2022-09-09T04:03:54;13.10;;;10.63;;
10260;SDS011;5175;42.606;23.388;2022-09-09T04:06:23;11.87;;;9.90;;
10260;SDS011;5175;42.606;23.388;2022-09-09T04:08:50;12.80;;;10.60;;
10260;SDS011;5175;42.606;23.388;2022-09-09T04:11:19;11.83;;;10.83;;
10260;SDS011;5175;42.606;23.388;2022-09-09T04:13:46;12.03;;;10.90;;
10260;SDS011;5175;42.606;23.388;2022-09-09T04:16:12;12.57;;;11.07;;
10260;SDS011;5175;42.606;23.388;2022-09-09T04:18:39;11.47;;;10.43;;
10260;SDS011;5175;42.606;23.388;2022-09-09T04:21:06;12.00;;;10.83;;
10260;SDS011;5175;42.606;23.388;2022-09-09T04:23:35;15.23;;;10.77;;
10260;SDS011;5175;42.606;23.388;2022-09-09T04:26:02;13.23;;;11.30;;
10260;SDS011;5175;42.606;23.388;2022-09-09T04:28:31;11.63;;;10.53;;
10260;SDS011;5175;42.606;23.388;2022-09-09T04:31:03;19.50;;;10.83;;
10260;SDS011;5175;42.606;23.388;2022-09-09T04:33:31;11.40;;;10.10;;
10260;SDS011;5175;42.606;23.388;2022-09-09T04:35:57;12.13;;;11.07;;
10260;SDS011;5175;42.606;23.388;2022-09-09T04:38:24;10.90;;;9.90;;
10260;SDS011;5175;42.606;23.388;2022-09-09T04:40:51;12.47;;;10.13;;
10260;SDS011;5175;42.606;23.388;2022-09-09T04:43:19;11.53;;;10.43;;
10260;SDS011;5175;42.606;23.388;2022-09-09T04:45:49;11.90;;;10.43;;
10260;SDS011;5175;42.606;23.388;2022-09-09T04:48:17;11.40;;;10.07;;
10260;SDS011;5175;42.606;23.388;2022-09-09T04:50:43;11.17;;;10.00;;
10260;SDS011;5175;42.606;23.388;2022-09-09T04:53:11;10.90;;;10.00;;
10260;SDS011;5175;42.606;23.388;2022-09-09T04:55:37;10.40;;;9.50;;
10260;SDS011;5175;42.606;23.388;2022-09-09T04:58:05;11.37;;;9.93;;
10260;SDS011;5175;42.606;23.388;2022-09-09T05:00:33;10.07;;;9.23;;
10260;SDS011;5175;42.606;23.388;2022-09-09T05:03:03;10.37;;;9.27;;
10260;SDS011;5175;42.606;23.388;2022-09-09T05:05:31;9.97;;;9.17;;
10260;SDS011;5175;42.606;23.388;2022-09-09T05:08:00;10.82;;;9.20;;
10260;SDS011;5175;42.606;23.388;2022-09-09T05:10:28;10.82;;;9.73;;
10260;SDS011;5175;42.606;23.388;2022-09-09T05:12:54;11.70;;;9.43;;
10260;SDS011;5175;42.606;23.388;2022-09-09T05:15:21;10.57;;;9.68;;
10260;SDS011;5175;42.606;23.388;2022-09-09T05:17:48;10.10;;;9.10;;
10260;SDS011;5175;42.606;23.388;2022-09-09T05:20:18;9.77;;;8.87;;
10260;SDS011;5175;42.606;23.388;2022-09-09T05:22:46;10.35;;;9.32;;
10260;SDS011;5175;42.606;23.388;2022-09-09T05:25:13;10.00;;;9.20;;
10260;SDS011;5175;42.606;23.388;2022-09-09T05:27:39;9.52;;;8.73;;
10260;SDS011;5175;42.606;23.388;2022-09-09T05:30:07;9.30;;;8.60;;
10260;SDS011;5175;42.606;23.388;2022-09-09T05:32:34;9.40;;;8.57;;
10260;SDS011;5175;42.606;23.388;2022-09-09T05:35:01;10.85;;;8.70;;
10260;SDS011;5175;42.606;23.388;2022-09-09T05:37:31;10.82;;;7.88;;
10260;SDS011;5175;42.606;23.388;2022-09-09T05:39:58;9.88;;;8.45;;
10260;SDS011;5175;42.606;23.388;2022-09-09T05:42:29;9.20;;;8.30;;
10260;SDS011;5175;42.606;23.388;2022-09-09T05:44:56;8.50;;;7.70;;
10260;SDS011;5175;42.606;23.388;2022-09-09T05:47:23;9.48;;;8.13;;
10260;SDS011;5175;42.606;23.388;2022-09-09T05:49:52;8.50;;;7.78;;
10260;SDS011;5175;42.606;23.388;2022-09-09T05:52:19;8.77;;;7.97;;
10260;SDS011;5175;42.606;23.388;2022-09-09T05:54:47;10.80;;;8.20;;
10260;SDS011;5175;42.606;23.388;2022-09-09T05:57:14;8.35;;;7.55;;
10260;SDS011;5175;42.606;23.388;2022-09-09T05:59:41;8.40;;;7.43;;
10260;SDS011;5175;42.606;23.388;2022-09-09T06:02:07;9.20;;;8.32;;
10260;SDS011;5175;42.606;23.388;2022-09-09T06:04:34;8.55;;;7.55;;
10260;SDS011;5175;42.606;23.388;2022-09-09T06:07:02;10.30;;;7.88;;
10260;SDS011;5175;42.606;23.388;2022-09-09T06:09:28;8.00;;;7.10;;
10260;SDS011;5175;42.606;23.388;2022-09-09T06:11:56;8.20;;;7.47;;
10260;SDS011;5175;42.606;23.388;2022-09-09T06:14:23;7.75;;;6.97;;
10260;SDS011;5175;42.606;23.388;2022-09-09T06:16:52;7.47;;;6.88;;
10260;SDS011;5175;42.606;23.388;2022-09-09T06:19:18;9.70;;;7.57;;
10260;SDS011;5175;42.606;23.388;2022-09-09T06:21:45;9.57;;;7.03;;
10260;SDS011;5175;42.606;23.388;2022-09-09T06:24:12;7.75;;;6.45;;
10260;SDS011;5175;42.606;23.388;2022-09-09T06:26:42;7.30;;;6.60;;
10260;SDS011;5175;42.606;23.388;2022-09-09T06:29:11;6.95;;;6.30;;
10260;SDS011;5175;42.606;23.388;2022-09-09T06:31:38;7.38;;;6.68;;
10260;SDS011;5175;42.606;23.388;2022-09-09T06:34:06;7.50;;;6.22;;
10260;SDS011;5175;42.606;23.388;2022-09-09T06:36:35;10.13;;;7.05;;
10260;SDS011;5175;42.606;23.388;2022-09-09T06:39:03;7.22;;;6.53;;
10260;SDS011;5175;42.606;23.388;2022-09-09T06:41:30;8.00;;;5.93;;
10260;SDS011;5175;42.606;23.388;2022-09-09T06:43:58;9.30;;;6.63;;
10260;SDS011;5175;42.606;23.388;2022-09-09T06:46:27;7.72;;;6.13;;
10260;SDS011;5175;42.606;23.388;2022-09-09T06:48:58;6.28;;;5.63;;
10260;SDS011;5175;42.606;23.388;2022-09-09T06:51:25;7.22;;;6.55;;
10260;SDS011;5175;42.606;23.388;2022-09-09T06:53:54;7.93;;;6.38;;
10260;SDS011;5175;42.606;23.388;2022-09-09T06:56:23;7.65;;;6.38;;
10260;SDS011;5175;42.606;23.388;2022-09-09T06:58:53;7.50;;;6.72;;
10260;SDS011;5175;42.606;23.388;2022-09-09T07:01:21;6.93;;;6.30;;
10260;SDS011;5175;42.606;23.388;2022-09-09T07:03:51;9.65;;;6.65;;
10260;SDS011;5175;42.606;23.388;2022-09-09T07:06:20;6.57;;;5.90;;
10260;SDS011;5175;42.606;23.388;2022-09-09T07:08:49;9.77;;;8.50;;
10260;SDS011;5175;42.606;23.388;2022-09-09T07:11:17;6.70;;;6.10;;
10260;SDS011;5175;42.606;23.388;2022-09-09T07:13:44;6.50;;;5.90;;
10260;SDS011;5175;42.606;23.388;2022-09-09T07:16:12;9.15;;;6.07;;
10260;SDS011;5175;42.606;23.388;2022-09-09T07:18:40;7.80;;;5.82;;
10260;SDS011;5175;42.606;23.388;2022-09-09T07:21:10;7.72;;;6.32;;
10260;SDS011;5175;42.606;23.388;2022-09-09T07:23:38;8.52;;;5.97;;
10260;SDS011;5175;42.606;23.388;2022-09-09T07:26:07;7.03;;;6.43;;
10260;SDS011;5175;42.606;23.388;2022-09-09T07:28:34;8.68;;;6.70;;
10260;SDS011;5175;42.606;23.388;2022-09-09T07:31:01;8.10;;;6.82;;
10260;SDS011;5175;42.606;23.388;2022-09-09T07:33:29;8.65;;;6.50;;
10260;SDS011;5175;42.606;23.388;2022-09-09T07:36:01;8.60;;;6.72;;
10260;SDS011;5175;42.606;23.388;2022-09-09T07:38:31;10.18;;;6.40;;
10260;SDS011;5175;42.606;23.388;2022-09-09T07:41:02;8.50;;;7.03;;
10260;SDS011;5175;42.606;23.388;2022-09-09T07:43:30;9.25;;;7.10;;
10260;SDS011;5175;42.606;23.388;2022-09-09T07:45:58;9.02;;;6.88;;
10260;SDS011;5175;42.606;23.388;2022-09-09T07:48:26;8.35;;;6.78;;
10260;SDS011;5175;42.606;23.388;2022-09-09T07:51:01;9.20;;;6.43;;
10260;SDS011;5175;42.606;23.388;2022-09-09T07:53:32;8.35;;;6.40;;
10260;SDS011;5175;42.606;23.388;2022-09-09T07:56:02;11.75;;;6.55;;
10260;SDS011;5175;42.606;23.388;2022-09-09T07:58:30;7.30;;;6.20;;
10260;SDS011;5175;42.606;23.388;2022-09-09T08:00:56;7.88;;;6.47;;
10260;SDS011;5175;42.606;23.388;2022-09-09T08:03:23;11.02;;;6.63;;
10260;SDS011;5175;42.606;23.388;2022-09-09T08:05:50;7.50;;;6.18;;
10260;SDS011;5175;42.606;23.388;2022-09-09T08:08:17;8.93;;;6.13;;
10260;SDS011;5175;42.606;23.388;2022-09-09T08:10:47;10.35;;;6.30;;
10260;SDS011;5175;42.606;23.388;2022-09-09T08:13:14;7.93;;;6.28;;
10260;SDS011;5175;42.606;23.388;2022-09-09T08:15:43;10.43;;;6.65;;
10260;SDS011;5175;42.606;23.388;2022-09-09T08:18:10;6.85;;;5.80;;
10260;SDS011;5175;42.606;23.388;2022-09-09T08:20:36;11.18;;;6.75;;
10260;SDS011;5175;42.606;23.388;2022-09-09T08:23:03;17.98;;;7.65;;
10260;SDS011;5175;42.606;23.388;2022-09-09T08:25:31;34.72;;;7.65;;
10260;SDS011;5175;42.606;23.388;2022-09-09T08:27:59;12.23;;;6.10;;
10260;SDS011;5175;42.606;23.388;2022-09-09T08:30:26;9.32;;;6.15;;
10260;SDS011;5175;42.606;23.388;2022-09-09T08:32:53;6.60;;;5.63;;
10260;SDS011;5175;42.606;23.388;2022-09-09T08:35:20;6.18;;;5.53;;
10260;SDS011;5175;42.606;23.388;2022-09-09T08:37:46;7.72;;;5.97;;
10260;SDS011;5175;42.606;23.388;2022-09-09T08:40:17;11.02;;;6.47;;
10260;SDS011;5175;42.606;23.388;2022-09-09T08:42:52;9.38;;;6.53;;
10260;SDS011;5175;42.606;23.388;2022-09-09T08:45:28;7.80;;;6.05;;
10260;SDS011;5175;42.606;23.388;2022-09-09T08:48:08;10.85;;;6.25;;
10260;SDS011;5175;42.606;23.388;2022-09-09T08:50:43;10.45;;;6.32;;
10260;SDS011;5175;42.606;23.388;2022-09-09T08:53:14;6.88;;;6.22;;
10260;SDS011;5175;42.606;23.388;2022-09-09T08:55:45;11.05;;;6.43;;
10260;SDS011;5175;42.606;23.388;2022-09-09T08:58:15;7.13;;;6.13;;
10260;SDS011;5175;42.606;23.388;2022-09-09T09:00:57;8.73;;;6.35;;
10260;SDS011;5175;42.606;23.388;2022-09-09T09:03:35;8.75;;;6.10;;
10260;SDS011;5175;42.606;23.388;2022-09-09T09:06:15;8.95;;;6.30;;
10260;SDS011;5175;42.606;23.388;2022-09-09T09:08:55;13.75;;;6.25;;
10260;SDS011;5175;42.606;23.388;2022-09-09T09:11:33;9.02;;;6.07;;
10260;SDS011;5175;42.606;23.388;2022-09-09T09:14:01;7.43;;;5.95;;
10260;SDS011;5175;42.606;23.388;2022-09-09T09:16:38;8.75;;;5.72;;
10260;SDS011;5175;42.606;23.388;2022-09-09T09:19:17;7.28;;;6.15;;
10260;SDS011;5175;42.606;23.388;2022-09-09T09:21:48;7.80;;;5.95;;
10260;SDS011;5175;42.606;23.388;2022-09-09T09:24:23;8.65;;;5.95;;
10260;SDS011;5175;42.606;23.388;2022-09-09T09:26:58;10.13;;;6.28;;
10260;SDS011;5175;42.606;23.388;2022-09-09T09:29:33;7.55;;;6.20;;
10260;SDS011;5175;42.606;23.388;2022-09-09T09:32:02;9.25;;;6.00;;
10260;SDS011;5175;42.606;23.388;2022-09-09T09:34:30;13.18;;;6.28;;
10260;SDS011;5175;42.606;23.388;2022-09-09T09:36:57;8.98;;;6.75;;
10260;SDS011;5175;42.606;23.388;2022-09-09T09:39:27;11.23;;;6.57;;
10260;SDS011;5175;42.606;23.388;2022-09-09T09:41:55;6.45;;;5.85;;
10260;SDS011;5175;42.606;23.388;2022-09-09T09:44:24;10.45;;;6.57;;
10260;SDS011;5175;42.606;23.388;2022-09-09T09:46:53;8.02;;;6.50;;
10260;SDS011;5175;42.606;23.388;2022-09-09T09:49:32;6.20;;;5.60;;
10260;SDS011;5175;42.606;23.388;2022-09-09T09:52:00;8.27;;;6.03;;
10260;SDS011;5175;42.606;23.388;2022-09-09T09:54:28;9.88;;;5.90;;
10260;SDS011;5175;42.606;23.388;2022-09-09T09:57:06;7.97;;;5.90;;
10260;SDS011;5175;42.606;23.388;2022-09-09T09:59:35;5.82;;;5.15;;
10260;SDS011;5175;42.606;23.388;2022-09-09T10:02:14;6.32;;;5.60;;
10260;SDS011;5175;42.606;23.388;2022-09-09T10:04:44;7.82;;;5.90;;
10260;SDS011;5175;42.606;23.388;2022-09-09T10:07:17;6.88;;;5.70;;
10260;SDS011;5175;42.606;23.388;2022-09-09T10:09:53;7.30;;;5.82;;
10260;SDS011;5175;42.606;23.388;2022-09-09T10:12:24;6.78;;;6.03;;
10260;SDS011;5175;42.606;23.388;2022-09-09T10:15:06;6.25;;;5.32;;
10260;SDS011;5175;42.606;23.388;2022-09-09T10:17:54;7.72;;;5.70;;
10260;SDS011;5175;42.606;23.388;2022-09-09T10:20:32;6.95;;;5.95;;
10260;SDS011;5175;42.606;23.388;2022-09-09T10:23:13;6.28;;;5.55;;
10260;SDS011;5175;42.606;23.388;2022-09-09T10:25:55;7.22;;;5.95;;
10260;SDS011;5175;42.606;23.388;2022-09-09T10:28:39;9.20;;;6.53;;
10260;SDS011;5175;42.606;23.388;2022-09-09T10:31:23;8.90;;;6.20;;
10260;SDS011;5175;42.606;23.388;2022-09-09T10:33:55;8.35;;;6.15;;
10260;SDS011;5175;42.606;23.388;2022-09-09T10:36:34;7.65;;;5.50;;
10260;SDS011;5175;42.606;23.388;2022-09-09T10:39:14;6.25;;;5.65;;
10260;SDS011;5175;42.606;23.388;2022-09-09T10:41:54;7.63;;;6.47;;
10260;SDS011;5175;42.606;23.388;2022-09-09T10:44:33;21.55;;;7.47;;
10260;SDS011;5175;42.606;23.388;2022-09-09T10:47:26;9.65;;;6.35;;
10260;SDS011;5175;42.606;23.388;2022-09-09T10:50:18;9.20;;;6.03;;
10260;SDS011;5175;42.606;23.388;2022-09-09T10:52:59;13.63;;;8.85;;
10260;SDS011;5175;42.606;23.388;2022-09-09T10:55:35;9.57;;;7.45;;
10260;SDS011;5175;42.606;23.388;2022-09-09T10:58:09;9.43;;;7.88;;
10260;SDS011;5175;42.606;23.388;2022-09-09T11:00:39;10.05;;;6.55;;
10260;SDS011;5175;42.606;23.388;2022-09-09T11:03:09;8.63;;;6.45;;
10260;SDS011;5175;42.606;23.388;2022-09-09T11:05:48;9.23;;;6.40;;
10260;SDS011;5175;42.606;23.388;2022-09-09T11:08:20;13.60;;;6.45;;
10260;SDS011;5175;42.606;23.388;2022-09-09T11:10:51;9.63;;;6.25;;
10260;SDS011;5175;42.606;23.388;2022-09-09T11:13:26;9.70;;;6.40;;
10260;SDS011;5175;42.606;23.388;2022-09-09T11:16:03;11.65;;;6.80;;
10260;SDS011;5175;42.606;23.388;2022-09-09T11:18:39;11.98;;;7.07;;
10260;SDS011;5175;42.606;23.388;2022-09-09T11:21:09;11.48;;;6.65;;
10260;SDS011;5175;42.606;23.388;2022-09-09T11:23:47;10.35;;;6.97;;
10260;SDS011;5175;42.606;23.388;2022-09-09T11:26:21;13.30;;;6.90;;
10260;SDS011;5175;42.606;23.388;2022-09-09T11:28:59;11.98;;;7.07;;
10260;SDS011;5175;42.606;23.388;2022-09-09T11:31:44;11.77;;;6.80;;
10260;SDS011;5175;42.606;23.388;2022-09-09T11:34:25;11.30;;;6.85;;
10260;SDS011;5175;42.606;23.388;2022-09-09T11:37:17;13.30;;;7.05;;
10260;SDS011;5175;42.606;23.388;2022-09-09T11:42:45;26.05;;;8.32;;
10260;SDS011;5175;42.606;23.388;2022-09-09T11:45:21;10.18;;;6.63;;
10260;SDS011;5175;42.606;23.388;2022-09-09T11:47:51;12.38;;;7.00;;
10260;SDS011;5175;42.606;23.388;2022-09-09T11:50:29;9.63;;;6.70;;
10260;SDS011;5175;42.606;23.388;2022-09-09T11:53:17;11.93;;;7.05;;
10260;SDS011;5175;42.606;23.388;2022-09-09T11:56:03;10.57;;;6.68;;
10260;SDS011;5175;42.606;23.388;2022-09-09T11:58:38;9.68;;;6.57;;
10260;SDS011;5175;42.606;23.388;2022-09-09T12:01:13;10.88;;;7.40;;
10260;SDS011;5175;42.606;23.388;2022-09-09T12:03:41;8.82;;;7.07;;
10260;SDS011;5175;42.606;23.388;2022-09-09T12:06:12;7.70;;;6.80;;
10260;SDS011;5175;42.606;23.388;2022-09-09T12:08:43;14.32;;;7.22;;
10260;SDS011;5175;42.606;23.388;2022-09-09T12:11:22;10.80;;;6.90;;
10260;SDS011;5175;42.606;23.388;2022-09-09T12:13:54;10.50;;;6.72;;
10260;SDS011;5175;42.606;23.388;2022-09-09T12:16:29;8.70;;;6.60;;
10260;SDS011;5175;42.606;23.388;2022-09-09T12:19:05;8.73;;;7.18;;
10260;SDS011;5175;42.606;23.388;2022-09-09T12:21:42;10.18;;;6.97;;
10260;SDS011;5175;42.606;23.388;2022-09-09T12:24:15;9.50;;;7.30;;
10260;SDS011;5175;42.606;23.388;2022-09-09T12:26:50;11.75;;;6.63;;
10260;SDS011;5175;42.606;23.388;2022-09-09T12:29:24;11.55;;;6.75;;
10260;SDS011;5175;42.606;23.388;2022-09-09T12:31:59;10.93;;;7.38;;
10260;SDS011;5175;42.606;23.388;2022-09-09T12:34:34;10.88;;;7.00;;
10260;SDS011;5175;42.606;23.388;2022-09-09T12:37:05;7.85;;;6.55;;
10260;SDS011;5175;42.606;23.388;2022-09-09T12:39:40;9.13;;;6.80;;
10260;SDS011;5175;42.606;23.388;2022-09-09T12:42:17;12.25;;;7.57;;
10260;SDS011;5175;42.606;23.388;2022-09-09T12:44:51;13.40;;;7.00;;
10260;SDS011;5175;42.606;23.388;2022-09-09T12:47:20;10.52;;;7.28;;
10260;SDS011;5175;42.606;23.388;2022-09-09T12:49:50;12.25;;;7.25;;
10260;SDS011;5175;42.606;23.388;2022-09-09T12:52:19;9.43;;;7.20;;
10260;SDS011;5175;42.606;23.388;2022-09-09T12:54:51;8.25;;;7.25;;
10260;SDS011;5175;42.606;23.388;2022-09-09T12:57:20;11.48;;;7.28;;
10260;SDS011;5175;42.606;23.388;2022-09-09T12:59:50;9.13;;;7.30;;
10260;SDS011;5175;42.606;23.388;2022-09-09T13:02:19;12.05;;;7.47;;
10260;SDS011;5175;42.606;23.388;2022-09-09T13:04:47;14.10;;;7.57;;
10260;SDS011;5175;42.606;23.388;2022-09-09T13:07:15;12.52;;;6.80;;
10260;SDS011;5175;42.606;23.388;2022-09-09T13:09:43;9.00;;;7.30;;
10260;SDS011;5175;42.606;23.388;2022-09-09T13:12:12;8.95;;;6.25;;
10260;SDS011;5175;42.606;23.388;2022-09-09T13:14:44;14.13;;;7.80;;
10260;SDS011;5175;42.606;23.388;2022-09-09T13:17:17;12.95;;;6.65;;
10260;SDS011;5175;42.606;23.388;2022-09-09T13:19:46;14.32;;;7.50;;
10260;SDS011;5175;42.606;23.388;2022-09-09T13:22:19;14.55;;;9.15;;
10260;SDS011;5175;42.606;23.388;2022-09-09T13:24:58;13.75;;;9.77;;
10260;SDS011;5175;42.606;23.388;2022-09-09T13:27:28;12.02;;;6.80;;
10260;SDS011;5175;42.606;23.388;2022-09-09T13:29:59;8.68;;;6.40;;
10260;SDS011;5175;42.606;23.388;2022-09-09T13:32:26;9.68;;;6.85;;
10260;SDS011;5175;42.606;23.388;2022-09-09T13:34:54;14.00;;;6.95;;
10260;SDS011;5175;42.606;23.388;2022-09-09T13:37:23;13.07;;;6.90;;
10260;SDS011;5175;42.606;23.388;2022-09-09T13:39:55;9.55;;;6.75;;
10260;SDS011;5175;42.606;23.388;2022-09-09T13:42:24;8.60;;;6.53;;
10260;SDS011;5175;42.606;23.388;2022-09-09T13:44:52;10.02;;;6.43;;
10260;SDS011;5175;42.606;23.388;2022-09-09T13:47:26;10.07;;;6.68;;
10260;SDS011;5175;42.606;23.388;2022-09-09T13:49:55;11.18;;;6.32;;
10260;SDS011;5175;42.606;23.388;2022-09-09T13:52:22;12.77;;;6.93;;
10260;SDS011;5175;42.606;23.388;2022-09-09T13:54:51;14.10;;;7.32;;
10260;SDS011;5175;42.606;23.388;2022-09-09T13:57:20;15.00;;;7.28;;
10260;SDS011;5175;42.606;23.388;2022-09-09T13:59:49;10.65;;;7.72;;
10260;SDS011;5175;42.606;23.388;2022-09-09T14:02:16;10.63;;;6.90;;
10260;SDS011;5175;42.606;23.388;2022-09-09T14:04:44;14.40;;;7.13;;
10260;SDS011;5175;42.606;23.388;2022-09-09T14:07:11;8.45;;;7.30;;
10260;SDS011;5175;42.606;23.388;2022-09-09T14:09:40;7.30;;;6.60;;
10260;SDS011;5175;42.606;23.388;2022-09-09T14:12:08;12.23;;;7.50;;
10260;SDS011;5175;42.606;23.388;2022-09-09T14:14:36;9.90;;;7.10;;
10260;SDS011;5175;42.606;23.388;2022-09-09T14:17:03;10.90;;;6.93;;
10260;SDS011;5175;42.606;23.388;2022-09-09T14:19:30;9.48;;;7.18;;
10260;SDS011;5175;42.606;23.388;2022-09-09T14:21:58;12.98;;;6.57;;
10260;SDS011;5175;42.606;23.388;2022-09-09T14:24:26;12.90;;;6.80;;
10260;SDS011;5175;42.606;23.388;2022-09-09T14:26:53;12.32;;;6.97;;
10260;SDS011;5175;42.606;23.388;2022-09-09T14:29:20;11.68;;;7.05;;
10260;SDS011;5175;42.606;23.388;2022-09-09T14:31:46;12.05;;;7.75;;
10260;SDS011;5175;42.606;23.388;2022-09-09T14:34:13;8.82;;;6.40;;
10260;SDS011;5175;42.606;23.388;2022-09-09T14:36:40;9.70;;;6.68;;
10260;SDS011;5175;42.606;23.388;2022-09-09T14:39:08;8.18;;;7.07;;
10260;SDS011;5175;42.606;23.388;2022-09-09T14:41:35;10.95;;;6.68;;
10260;SDS011;5175;42.606;23.388;2022-09-09T14:44:02;10.60;;;6.75;;
10260;SDS011;5175;42.606;23.388;2022-09-09T14:46:28;7.82;;;6.63;;
10260;SDS011;5175;42.606;23.388;2022-09-09T14:48:56;9.82;;;6.50;;
10260;SDS011;5175;42.606;23.388;2022-09-09T14:51:23;8.15;;;6.30;;
10260;SDS011;5175;42.606;23.388;2022-09-09T14:53:52;6.70;;;5.78;;
10260;SDS011;5175;42.606;23.388;2022-09-09T14:56:22;11.35;;;6.30;;
10260;SDS011;5175;42.606;23.388;2022-09-09T14:58:52;6.90;;;5.88;;
10260;SDS011;5175;42.606;23.388;2022-09-09T15:01:20;6.80;;;5.72;;
10260;SDS011;5175;42.606;23.388;2022-09-09T15:03:51;10.27;;;5.70;;
10260;SDS011;5175;42.606;23.388;2022-09-09T15:06:19;6.43;;;5.55;;
10260;SDS011;5175;42.606;23.388;2022-09-09T15:08:47;7.13;;;5.50;;
10260;SDS011;5175;42.606;23.388;2022-09-09T15:11:16;8.52;;;6.00;;